sensor_id;sensor_type;location;lat;lon;timestamp;pressure;altitude;pressure_sealevel;temperature;humidity
77079;BME280;66004;55.096;38.760;2023-05-03T00:02:08;100614.09;;;7.43;49.91
77079;BME280;66004;55.096;38.760;2023-05-03T00:04:35;100613.59;;;7.40;50.21
77079;BME280;66004;55.096;38.760;2023-05-03T00:07:01;100612.44;;;7.41;50.11
77079;BME280;66004;55.096;38.760;2023-05-03T00:09:28;100610.78;;;7.40;50.37
77079;BME280;66004;55.096;38.760;2023-05-03T00:11:53;100610.78;;;7.40;50.17
77079;BME280;66004;55.096;38.760;2023-05-03T00:14:19;100607.47;;;7.38;50.28
77079;BME280;66004;55.096;38.760;2023-05-03T00:16:44;100611.38;;;7.37;50.32
77079;BME280;66004;55.096;38.760;2023-05-03T00:19:10;100613.66;;;7.35;50.47
77079;BME280;66004;55.096;38.760;2023-05-03T00:21:35;100612.63;;;7.31;50.23
77079;BME280;66004;55.096;38.760;2023-05-03T00:24:00;100611.56;;;7.27;50.51
77079;BME280;66004;55.096;38.760;2023-05-03T00:26:26;100619.41;;;7.25;50.57
77079;BME280;66004;55.096;38.760;2023-05-03T00:28:52;100615.03;;;7.19;50.74
77079;BME280;66004;55.096;38.760;2023-05-03T00:31:18;100607.56;;;7.14;50.77
77079;BME280;66004;55.096;38.760;2023-05-03T00:33:43;100608.38;;;7.15;51.06
77079;BME280;66004;55.096;38.760;2023-05-03T00:36:13;100607.84;;;7.13;50.96
77079;BME280;66004;55.096;38.760;2023-05-03T00:38:40;100602.25;;;7.13;51.29
77079;BME280;66004;55.096;38.760;2023-05-03T00:41:08;100603.38;;;7.12;51.37
77079;BME280;66004;55.096;38.760;2023-05-03T00:43:34;100597.56;;;7.08;51.22
77079;BME280;66004;55.096;38.760;2023-05-03T00:46:00;100597.78;;;7.12;51.03
77079;BME280;66004;55.096;38.760;2023-05-03T00:48:28;100598.00;;;7.15;51.18
77079;BME280;66004;55.096;38.760;2023-05-03T00:50:55;100585.53;;;7.08;50.95
77079;BME280;66004;55.096;38.760;2023-05-03T00:53:22;100598.00;;;7.15;51.20
77079;BME280;66004;55.096;38.760;2023-05-03T00:55:51;100583.56;;;7.08;51.57
77079;BME280;66004;55.096;38.760;2023-05-03T00:58:16;100591.97;;;7.08;51.48
77079;BME280;66004;55.096;38.760;2023-05-03T01:00:42;100589.78;;;7.05;51.79
77079;BME280;66004;55.096;38.760;2023-05-03T01:03:08;100590.09;;;7.04;51.77
77079;BME280;66004;55.096;38.760;2023-05-03T01:05:36;100581.69;;;7.04;51.79
77079;BME280;66004;55.096;38.760;2023-05-03T01:08:26;100584.03;;;6.96;51.78
77079;BME280;66004;55.096;38.760;2023-05-03T01:11:14;100587.97;;;6.95;52.04
77079;BME280;66004;55.096;38.760;2023-05-03T01:13:55;100582.97;;;6.92;52.10
77079;BME280;66004;55.096;38.760;2023-05-03T01:16:38;100579.97;;;6.89;52.31
77079;BME280;66004;55.096;38.760;2023-05-03T01:19:06;100570.22;;;6.86;52.24
77079;BME280;66004;55.096;38.760;2023-05-03T01:21:34;100575.88;;;6.81;52.31
77079;BME280;66004;55.096;38.760;2023-05-03T01:24:17;100582.63;;;6.80;52.45
77079;BME280;66004;55.096;38.760;2023-05-03T01:26:43;100582.06;;;6.78;52.75
77079;BME280;66004;55.096;38.760;2023-05-03T01:29:08;100578.75;;;6.76;52.83
77079;BME280;66004;55.096;38.760;2023-05-03T01:31:54;100569.59;;;6.70;53.05
77079;BME280;66004;55.096;38.760;2023-05-03T01:34:45;100573.78;;;6.73;53.32
77079;BME280;66004;55.096;38.760;2023-05-03T01:37:15;100568.75;;;6.70;53.17
77079;BME280;66004;55.096;38.760;2023-05-03T01:39:52;100579.94;;;6.70;53.62
77079;BME280;66004;55.096;38.760;2023-05-03T01:42:20;100576.03;;;6.71;53.33
77079;BME280;66004;55.096;38.760;2023-05-03T01:44:47;100567.31;;;6.72;53.55
77079;BME280;66004;55.096;38.760;2023-05-03T01:47:14;100568.19;;;6.73;53.46
77079;BME280;66004;55.096;38.760;2023-05-03T01:49:39;100558.03;;;6.77;53.54
77079;BME280;66004;55.096;38.760;2023-05-03T01:52:05;100554.66;;;6.80;53.35
77079;BME280;66004;55.096;38.760;2023-05-03T01:54:31;100557.34;;;6.85;53.14
77079;BME280;66004;55.096;38.760;2023-05-03T01:56:56;100561.19;;;6.89;53.00
77079;BME280;66004;55.096;38.760;2023-05-03T01:59:22;100556.16;;;6.91;53.09
77079;BME280;66004;55.096;38.760;2023-05-03T02:01:47;100557.28;;;6.90;52.93
77079;BME280;66004;55.096;38.760;2023-05-03T02:04:12;100562.88;;;6.90;52.96
77079;BME280;66004;55.096;38.760;2023-05-03T02:06:38;100555.09;;;6.87;53.13
77079;BME280;66004;55.096;38.760;2023-05-03T02:09:03;100559.03;;;6.86;53.23
77079;BME280;66004;55.096;38.760;2023-05-03T02:11:29;100556.00;;;6.82;53.25
77079;BME280;66004;55.096;38.760;2023-05-03T02:13:54;100557.66;;;6.83;53.16
77079;BME280;66004;55.096;38.760;2023-05-03T02:16:20;100539.00;;;6.79;53.54
77079;BME280;66004;55.096;38.760;2023-05-03T02:18:45;100554.78;;;6.89;53.45
77079;BME280;66004;55.096;38.760;2023-05-03T02:21:11;100553.97;;;6.88;53.33
77079;BME280;66004;55.096;38.760;2023-05-03T02:23:37;100556.47;;;6.90;53.53
77079;BME280;66004;55.096;38.760;2023-05-03T02:26:02;100543.28;;;6.90;53.50
77079;BME280;66004;55.096;38.760;2023-05-03T02:28:28;100545.50;;;6.93;53.62
77079;BME280;66004;55.096;38.760;2023-05-03T02:30:53;100537.19;;;6.88;53.66
77079;BME280;66004;55.096;38.760;2023-05-03T02:33:19;100533.31;;;7.03;53.35
77079;BME280;66004;55.096;38.760;2023-05-03T02:35:44;100537.97;;;7.08;53.54
77079;BME280;66004;55.096;38.760;2023-05-03T02:38:10;100537.38;;;7.11;53.29
77079;BME280;66004;55.096;38.760;2023-05-03T02:40:35;100537.31;;;7.16;53.29
77079;BME280;66004;55.096;38.760;2023-05-03T02:43:00;100536.38;;;7.20;53.12
77079;BME280;66004;55.096;38.760;2023-05-03T02:45:27;100534.63;;;7.25;52.79
77079;BME280;66004;55.096;38.760;2023-05-03T02:47:53;100529.25;;;7.28;52.95
77079;BME280;66004;55.096;38.760;2023-05-03T02:52:18;100533.00;;;7.37;52.54
77079;BME280;66004;55.096;38.760;2023-05-03T02:54:44;100534.06;;;7.41;52.59
77079;BME280;66004;55.096;38.760;2023-05-03T02:57:11;100528.38;;;7.47;52.65
77079;BME280;66004;55.096;38.760;2023-05-03T02:59:37;100534.94;;;7.56;52.56
77079;BME280;66004;55.096;38.760;2023-05-03T03:02:02;100537.00;;;7.64;52.52
77079;BME280;66004;55.096;38.760;2023-05-03T03:04:28;100518.34;;;7.73;52.37
77079;BME280;66004;55.096;38.760;2023-05-03T03:06:53;100527.47;;;7.79;52.24
77079;BME280;66004;55.096;38.760;2023-05-03T03:09:19;100521.50;;;7.86;52.13
77079;BME280;66004;55.096;38.760;2023-05-03T03:11:45;100521.50;;;7.86;52.13
77079;BME280;66004;55.096;38.760;2023-05-03T03:14:10;100514.22;;;7.85;52.00
77079;BME280;66004;55.096;38.760;2023-05-03T03:16:35;100503.00;;;7.85;51.98
77079;BME280;66004;55.096;38.760;2023-05-03T03:19:01;100511.72;;;7.83;51.94
77079;BME280;66004;55.096;38.760;2023-05-03T03:21:26;100506.41;;;7.82;52.25
77079;BME280;66004;55.096;38.760;2023-05-03T03:23:53;100487.03;;;7.71;52.08
77079;BME280;66004;55.096;38.760;2023-05-03T03:26:19;100496.97;;;7.77;52.48
77079;BME280;66004;55.096;38.760;2023-05-03T03:28:44;100486.63;;;7.78;52.46
77079;BME280;66004;55.096;38.760;2023-05-03T03:31:09;100485.97;;;7.81;52.42
77079;BME280;66004;55.096;38.760;2023-05-03T03:33:35;100481.19;;;7.82;52.33
77079;BME280;66004;55.096;38.760;2023-05-03T03:36:01;100487.13;;;7.94;52.31
77079;BME280;66004;55.096;38.760;2023-05-03T03:38:26;100492.84;;;8.03;52.19
77079;BME280;66004;55.096;38.760;2023-05-03T03:40:52;100488.19;;;8.12;52.13
77079;BME280;66004;55.096;38.760;2023-05-03T03:43:18;100478.81;;;8.16;52.04
77079;BME280;66004;55.096;38.760;2023-05-03T03:45:43;100486.88;;;8.32;51.71
77079;BME280;66004;55.096;38.760;2023-05-03T03:48:09;100479.38;;;8.41;51.58
77079;BME280;66004;55.096;38.760;2023-05-03T03:50:35;100470.13;;;8.54;51.44
77079;BME280;66004;55.096;38.760;2023-05-03T03:53:00;100486.53;;;8.61;51.16
77079;BME280;66004;55.096;38.760;2023-05-03T03:55:25;100474.25;;;8.71;51.12
77079;BME280;66004;55.096;38.760;2023-05-03T03:57:51;100484.19;;;8.77;51.02
77079;BME280;66004;55.096;38.760;2023-05-03T04:00:16;100487.91;;;8.86;50.80
77079;BME280;66004;55.096;38.760;2023-05-03T04:02:42;100481.53;;;8.94;50.57
77079;BME280;66004;55.096;38.760;2023-05-03T04:05:08;100475.97;;;9.03;50.62
77079;BME280;66004;55.096;38.760;2023-05-03T04:07:33;100478.84;;;9.12;50.51
77079;BME280;66004;55.096;38.760;2023-05-03T04:09:58;100472.97;;;9.22;50.35
77079;BME280;66004;55.096;38.760;2023-05-03T04:12:24;100473.84;;;9.31;50.09
77079;BME280;66004;55.096;38.760;2023-05-03T04:14:49;100474.34;;;9.33;49.63
77079;BME280;66004;55.096;38.760;2023-05-03T04:17:15;100473.44;;;9.47;49.53
77079;BME280;66004;55.096;38.760;2023-05-03T04:19:40;100458.88;;;9.45;49.14
77079;BME280;66004;55.096;38.760;2023-05-03T04:22:06;100470.56;;;9.69;48.79
77079;BME280;66004;55.096;38.760;2023-05-03T04:24:31;100466.31;;;9.81;48.57
77079;BME280;66004;55.096;38.760;2023-05-03T04:26:56;100469.84;;;9.95;48.47
77079;BME280;66004;55.096;38.760;2023-05-03T04:29:23;100470.72;;;10.04;48.05
77079;BME280;66004;55.096;38.760;2023-05-03T04:31:49;100463.31;;;10.17;47.95
77079;BME280;66004;55.096;38.760;2023-05-03T04:34:14;100462.81;;;10.24;47.63
77079;BME280;66004;55.096;38.760;2023-05-03T04:36:40;100471.16;;;10.46;47.55
77079;BME280;66004;55.096;38.760;2023-05-03T04:39:10;100467.84;;;10.62;47.24
77079;BME280;66004;55.096;38.760;2023-05-03T04:41:39;100458.91;;;10.77;46.78
77079;BME280;66004;55.096;38.760;2023-05-03T04:44:05;100450.97;;;10.97;46.21
77079;BME280;66004;55.096;38.760;2023-05-03T04:46:31;100463.50;;;11.25;46.18
77079;BME280;66004;55.096;38.760;2023-05-03T04:48:56;100459.41;;;11.61;45.65
77079;BME280;66004;55.096;38.760;2023-05-03T04:51:22;100449.84;;;11.92;44.77
77079;BME280;66004;55.096;38.760;2023-05-03T04:53:48;100460.63;;;12.50;43.56
77079;BME280;66004;55.096;38.760;2023-05-03T04:56:14;100458.50;;;12.89;42.90
77079;BME280;66004;55.096;38.760;2023-05-03T04:58:39;100465.53;;;13.16;41.98
77079;BME280;66004;55.096;38.760;2023-05-03T05:01:05;100447.78;;;13.15;41.76
77079;BME280;66004;55.096;38.760;2023-05-03T05:03:31;100465.47;;;13.24;42.18
77079;BME280;66004;55.096;38.760;2023-05-03T05:05:57;100444.97;;;13.28;42.00
77079;BME280;66004;55.096;38.760;2023-05-03T05:08:22;100453.53;;;13.40;41.62
77079;BME280;66004;55.096;38.760;2023-05-03T05:10:48;100448.13;;;13.47;40.72
77079;BME280;66004;55.096;38.760;2023-05-03T05:13:14;100455.00;;;13.58;40.75
77079;BME280;66004;55.096;38.760;2023-05-03T05:15:40;100446.97;;;13.60;40.27
77079;BME280;66004;55.096;38.760;2023-05-03T05:18:05;100445.22;;;13.80;39.34
77079;BME280;66004;55.096;38.760;2023-05-03T05:20:31;100449.59;;;14.02;39.76
77079;BME280;66004;55.096;38.760;2023-05-03T05:22:56;100449.47;;;14.11;39.24
77079;BME280;66004;55.096;38.760;2023-05-03T05:25:22;100455.25;;;14.15;39.38
77079;BME280;66004;55.096;38.760;2023-05-03T05:27:47;100464.91;;;14.14;39.13
77079;BME280;66004;55.096;38.760;2023-05-03T05:30:13;100464.22;;;14.05;39.26
77079;BME280;66004;55.096;38.760;2023-05-03T05:32:39;100469.63;;;13.97;39.50
77079;BME280;66004;55.096;38.760;2023-05-03T05:35:04;100478.84;;;13.94;39.56
77079;BME280;66004;55.096;38.760;2023-05-03T05:37:30;100474.59;;;13.88;40.10
77079;BME280;66004;55.096;38.760;2023-05-03T05:39:56;100470.66;;;13.68;39.82
77079;BME280;66004;55.096;38.760;2023-05-03T05:42:21;100479.25;;;13.59;39.88
77079;BME280;66004;55.096;38.760;2023-05-03T05:44:47;100474.75;;;13.46;40.56
77079;BME280;66004;55.096;38.760;2023-05-03T05:47:12;100480.84;;;13.36;40.58
77079;BME280;66004;55.096;38.760;2023-05-03T05:49:38;100485.94;;;13.21;40.58
77079;BME280;66004;55.096;38.760;2023-05-03T05:52:04;100485.19;;;13.12;41.10
77079;BME280;66004;55.096;38.760;2023-05-03T05:54:30;100487.19;;;13.12;41.65
77079;BME280;66004;55.096;38.760;2023-05-03T05:56:56;100472.47;;;13.06;41.68
77079;BME280;66004;55.096;38.760;2023-05-03T05:59:23;100484.84;;;13.14;42.20
77079;BME280;66004;55.096;38.760;2023-05-03T06:01:48;100496.28;;;13.17;42.32
77079;BME280;66004;55.096;38.760;2023-05-03T06:04:14;100494.69;;;13.29;42.13
77079;BME280;66004;55.096;38.760;2023-05-03T06:06:40;100502.75;;;13.39;42.04
77079;BME280;66004;55.096;38.760;2023-05-03T06:09:06;100499.34;;;13.46;41.74
77079;BME280;66004;55.096;38.760;2023-05-03T06:11:33;100501.84;;;13.59;41.31
77079;BME280;66004;55.096;38.760;2023-05-03T06:13:59;100508.59;;;13.67;41.27
77079;BME280;66004;55.096;38.760;2023-05-03T06:16:27;100508.47;;;13.63;41.54
77079;BME280;66004;55.096;38.760;2023-05-03T06:18:53;100505.63;;;13.51;42.00
77079;BME280;66004;55.096;38.760;2023-05-03T06:21:18;100514.03;;;13.39;41.87
77079;BME280;66004;55.096;38.760;2023-05-03T06:23:44;100517.63;;;13.27;42.30
77079;BME280;66004;55.096;38.760;2023-05-03T06:26:09;100512.56;;;13.20;42.49
77079;BME280;66004;55.096;38.760;2023-05-03T06:28:35;100519.56;;;13.14;42.01
77079;BME280;66004;55.096;38.760;2023-05-03T06:31:01;100507.88;;;13.03;41.69
77079;BME280;66004;55.096;38.760;2023-05-03T06:33:26;100511.31;;;13.09;41.65
77079;BME280;66004;55.096;38.760;2023-05-03T06:35:52;100524.81;;;13.24;41.69
77079;BME280;66004;55.096;38.760;2023-05-03T06:38:18;100527.41;;;13.30;41.24
77079;BME280;66004;55.096;38.760;2023-05-03T06:40:47;100526.06;;;13.36;40.68
77079;BME280;66004;55.096;38.760;2023-05-03T06:43:14;100512.63;;;13.33;41.08
77079;BME280;66004;55.096;38.760;2023-05-03T06:45:41;100534.34;;;13.53;40.50
77079;BME280;66004;55.096;38.760;2023-05-03T06:48:07;100535.09;;;13.62;40.26
77079;BME280;66004;55.096;38.760;2023-05-03T06:50:34;100536.25;;;13.61;40.21
77079;BME280;66004;55.096;38.760;2023-05-03T06:53:00;100532.47;;;13.57;40.54
77079;BME280;66004;55.096;38.760;2023-05-03T06:55:25;100530.84;;;13.56;40.18
77079;BME280;66004;55.096;38.760;2023-05-03T06:57:52;100523.09;;;13.66;40.22
77079;BME280;66004;55.096;38.760;2023-05-03T07:00:18;100494.38;;;13.76;40.31
77079;BME280;66004;55.096;38.760;2023-05-03T07:02:45;100503.94;;;13.96;40.27
77079;BME280;66004;55.096;38.760;2023-05-03T07:05:10;100514.22;;;14.13;40.10
77079;BME280;66004;55.096;38.760;2023-05-03T07:07:36;100495.09;;;14.22;39.44
77079;BME280;66004;55.096;38.760;2023-05-03T07:10:02;100515.03;;;14.38;39.46
77079;BME280;66004;55.096;38.760;2023-05-03T07:12:27;100507.00;;;14.65;39.01
77079;BME280;66004;55.096;38.760;2023-05-03T07:14:54;100511.78;;;14.89;38.23
77079;BME280;66004;55.096;38.760;2023-05-03T07:17:19;100517.16;;;15.06;37.89
77079;BME280;66004;55.096;38.760;2023-05-03T07:19:46;100515.78;;;15.00;37.76
77079;BME280;66004;55.096;38.760;2023-05-03T07:22:13;100509.66;;;14.98;38.35
77079;BME280;66004;55.096;38.760;2023-05-03T07:24:38;100513.06;;;15.04;37.65
77079;BME280;66004;55.096;38.760;2023-05-03T07:27:04;100519.97;;;15.18;37.63
77079;BME280;66004;55.096;38.760;2023-05-03T07:29:30;100508.56;;;15.31;37.62
77079;BME280;66004;55.096;38.760;2023-05-03T07:31:55;100508.41;;;15.40;37.33
77079;BME280;66004;55.096;38.760;2023-05-03T07:34:21;100518.41;;;15.49;36.88
77079;BME280;66004;55.096;38.760;2023-05-03T07:36:47;100520.78;;;15.47;37.41
77079;BME280;66004;55.096;38.760;2023-05-03T07:39:12;100519.13;;;15.46;37.41
77079;BME280;66004;55.096;38.760;2023-05-03T07:41:38;100507.59;;;15.39;37.24
77079;BME280;66004;55.096;38.760;2023-05-03T07:44:03;100521.31;;;15.37;37.06
77079;BME280;66004;55.096;38.760;2023-05-03T07:46:29;100519.88;;;15.43;36.83
77079;BME280;66004;55.096;38.760;2023-05-03T07:49:02;100513.84;;;15.61;36.94
77079;BME280;66004;55.096;38.760;2023-05-03T07:51:29;100537.91;;;15.79;36.91
77079;BME280;66004;55.096;38.760;2023-05-03T07:53:55;100545.66;;;15.82;37.27
77079;BME280;66004;55.096;38.760;2023-05-03T07:56:22;100547.47;;;15.74;37.14
77079;BME280;66004;55.096;38.760;2023-05-03T07:58:48;100534.38;;;15.70;36.82
77079;BME280;66004;55.096;38.760;2023-05-03T08:01:13;100543.78;;;15.86;36.96
77079;BME280;66004;55.096;38.760;2023-05-03T08:03:39;100540.31;;;16.09;36.84
77079;BME280;66004;55.096;38.760;2023-05-03T08:06:04;100542.50;;;16.31;36.01
77079;BME280;66004;55.096;38.760;2023-05-03T08:08:31;100553.38;;;16.45;36.00
77079;BME280;66004;55.096;38.760;2023-05-03T08:10:58;100537.06;;;16.42;35.64
77079;BME280;66004;55.096;38.760;2023-05-03T08:13:23;100546.72;;;16.38;36.09
77079;BME280;66004;55.096;38.760;2023-05-03T08:15:49;100535.34;;;16.38;36.34
77079;BME280;66004;55.096;38.760;2023-05-03T08:18:15;100543.75;;;16.50;36.14
77079;BME280;66004;55.096;38.760;2023-05-03T08:20:40;100530.03;;;16.52;36.05
77079;BME280;66004;55.096;38.760;2023-05-03T08:23:06;100552.34;;;16.69;35.34
77079;BME280;66004;55.096;38.760;2023-05-03T08:25:32;100558.94;;;16.73;35.80
77079;BME280;66004;55.096;38.760;2023-05-03T08:27:58;100563.13;;;16.80;36.01
77079;BME280;66004;55.096;38.760;2023-05-03T08:30:24;100567.91;;;16.76;36.13
77079;BME280;66004;55.096;38.760;2023-05-03T08:32:51;100555.91;;;16.66;36.16
77079;BME280;66004;55.096;38.760;2023-05-03T08:35:16;100562.06;;;16.68;36.22
77079;BME280;66004;55.096;38.760;2023-05-03T08:37:43;100541.00;;;16.69;35.95
77079;BME280;66004;55.096;38.760;2023-05-03T08:40:09;100565.59;;;16.81;36.12
77079;BME280;66004;55.096;38.760;2023-05-03T08:42:44;100552.34;;;16.69;35.51
77079;BME280;66004;55.096;38.760;2023-05-03T08:45:12;100555.28;;;16.57;36.45
77079;BME280;66004;55.096;38.760;2023-05-03T08:47:40;100542.84;;;16.46;36.48
77079;BME280;66004;55.096;38.760;2023-05-03T08:52:18;100549.47;;;16.18;36.94
77079;BME280;66004;55.096;38.760;2023-05-03T08:54:45;100565.09;;;15.96;37.42
77079;BME280;66004;55.096;38.760;2023-05-03T08:57:13;100577.72;;;15.83;37.82
77079;BME280;66004;55.096;38.760;2023-05-03T08:59:49;100587.81;;;15.68;37.84
77079;BME280;66004;55.096;38.760;2023-05-03T09:02:15;100579.22;;;15.52;38.78
77079;BME280;66004;55.096;38.760;2023-05-03T09:04:41;100584.41;;;15.34;39.14
77079;BME280;66004;55.096;38.760;2023-05-03T09:07:08;100566.03;;;15.15;40.12
77079;BME280;66004;55.096;38.760;2023-05-03T09:09:34;100557.16;;;15.17;40.69
77079;BME280;66004;55.096;38.760;2023-05-03T09:12:01;100542.44;;;15.11;41.94
77079;BME280;66004;55.096;38.760;2023-05-03T09:14:27;100558.91;;;15.22;42.47
77079;BME280;66004;55.096;38.760;2023-05-03T09:16:52;100568.00;;;15.27;42.21
77079;BME280;66004;55.096;38.760;2023-05-03T09:19:18;100567.38;;;15.34;42.45
77079;BME280;66004;55.096;38.760;2023-05-03T09:21:45;100572.97;;;15.58;43.25
77079;BME280;66004;55.096;38.760;2023-05-03T09:24:15;100572.31;;;15.93;42.85
77079;BME280;66004;55.096;38.760;2023-05-03T09:26:41;100572.09;;;16.14;41.69
77079;BME280;66004;55.096;38.760;2023-05-03T09:29:07;100547.25;;;16.27;42.03
77079;BME280;66004;55.096;38.760;2023-05-03T09:31:34;100552.00;;;16.55;41.47
77079;BME280;66004;55.096;38.760;2023-05-03T09:34:00;100548.59;;;16.65;40.88
77079;BME280;66004;55.096;38.760;2023-05-03T09:36:26;100556.28;;;16.81;40.39
77079;BME280;66004;55.096;38.760;2023-05-03T09:38:52;100537.19;;;16.97;39.81
77079;BME280;66004;55.096;38.760;2023-05-03T09:41:30;100547.53;;;17.25;39.21
77079;BME280;66004;55.096;38.760;2023-05-03T09:43:56;100553.66;;;17.27;39.15
77079;BME280;66004;55.096;38.760;2023-05-03T09:46:28;100546.69;;;17.05;38.46
77079;BME280;66004;55.096;38.760;2023-05-03T09:48:57;100561.75;;;17.25;38.80
77079;BME280;66004;55.096;38.760;2023-05-03T09:51:23;100571.13;;;17.45;38.66
77079;BME280;66004;55.096;38.760;2023-05-03T09:53:49;100569.91;;;17.65;37.97
77079;BME280;66004;55.096;38.760;2023-05-03T09:56:14;100573.56;;;17.66;37.35
77079;BME280;66004;55.096;38.760;2023-05-03T09:58:41;100569.84;;;17.62;37.56
77079;BME280;66004;55.096;38.760;2023-05-03T10:01:08;100577.16;;;17.63;37.51
77079;BME280;66004;55.096;38.760;2023-05-03T10:03:44;100577.16;;;17.63;37.18
77079;BME280;66004;55.096;38.760;2023-05-03T10:06:30;100576.41;;;17.66;37.69
77079;BME280;66004;55.096;38.760;2023-05-03T10:12:24;100606.41;;;16.89;37.98
77079;BME280;66004;55.096;38.760;2023-05-03T10:14:51;100608.91;;;16.59;38.03
77079;BME280;66004;55.096;38.760;2023-05-03T10:17:24;100611.56;;;16.35;38.84
77079;BME280;66004;55.096;38.760;2023-05-03T10:19:56;100618.41;;;16.34;38.77
77079;BME280;66004;55.096;38.760;2023-05-03T10:22:25;100610.25;;;16.33;39.06
77079;BME280;66004;55.096;38.760;2023-05-03T10:27:41;100603.38;;;16.82;38.79
77079;BME280;66004;55.096;38.760;2023-05-03T10:30:12;100605.84;;;16.99;38.59
77079;BME280;66004;55.096;38.760;2023-05-03T10:32:51;100590.94;;;17.22;38.66
77079;BME280;66004;55.096;38.760;2023-05-03T10:35:16;100589.16;;;17.33;38.61
77079;BME280;66004;55.096;38.760;2023-05-03T10:37:44;100602.78;;;17.43;38.71
77079;BME280;66004;55.096;38.760;2023-05-03T10:40:11;100595.50;;;17.46;38.33
77079;BME280;66004;55.096;38.760;2023-05-03T10:42:39;100597.81;;;17.40;38.49
77079;BME280;66004;55.096;38.760;2023-05-03T10:45:07;100602.78;;;17.43;38.27
77079;BME280;66004;55.096;38.760;2023-05-03T10:47:34;100597.53;;;17.26;38.69
77079;BME280;66004;55.096;38.760;2023-05-03T10:55:17;100621.16;;;16.95;39.47
77079;BME280;66004;55.096;38.760;2023-05-03T10:57:45;100620.91;;;16.84;40.18
77079;BME280;66004;55.096;38.760;2023-05-03T11:00:17;100606.97;;;16.79;40.60
77079;BME280;66004;55.096;38.760;2023-05-03T11:05:34;100610.16;;;16.93;40.60
77079;BME280;66004;55.096;38.760;2023-05-03T11:08:11;100621.44;;;17.05;40.46
77079;BME280;66004;55.096;38.760;2023-05-03T11:10:37;100620.97;;;17.03;40.22
77079;BME280;66004;55.096;38.760;2023-05-03T11:13:03;100621.88;;;17.07;40.21
77079;BME280;66004;55.096;38.760;2023-05-03T11:15:29;100624.13;;;17.18;40.79
77079;BME280;66004;55.096;38.760;2023-05-03T11:17:55;100632.22;;;17.16;39.91
77079;BME280;66004;55.096;38.760;2023-05-03T11:20:21;100636.09;;;17.07;40.22
77079;BME280;66004;55.096;38.760;2023-05-03T11:22:47;100635.19;;;17.03;40.39
77079;BME280;66004;55.096;38.760;2023-05-03T11:25:12;100640.13;;;17.06;40.43
77079;BME280;66004;55.096;38.760;2023-05-03T11:27:42;100633.66;;;16.90;40.26
77079;BME280;66004;55.096;38.760;2023-05-03T11:30:09;100637.31;;;16.90;40.83
77079;BME280;66004;55.096;38.760;2023-05-03T11:32:35;100636.81;;;17.04;40.62
77079;BME280;66004;55.096;38.760;2023-05-03T11:35:01;100630.22;;;17.00;41.22
77079;BME280;66004;55.096;38.760;2023-05-03T11:37:30;100639.13;;;16.99;41.28
77079;BME280;66004;55.096;38.760;2023-05-03T11:39:57;100638.97;;;16.91;41.80
77079;BME280;66004;55.096;38.760;2023-05-03T11:42:22;100643.91;;;16.79;41.79
77079;BME280;66004;55.096;38.760;2023-05-03T11:44:54;100627.41;;;16.52;42.50
77079;BME280;66004;55.096;38.760;2023-05-03T11:47:21;100626.03;;;16.30;42.00
77079;BME280;66004;55.096;38.760;2023-05-03T11:49:54;100623.00;;;16.23;42.44
77079;BME280;66004;55.096;38.760;2023-05-03T11:52:24;100631.44;;;16.35;42.05
77079;BME280;66004;55.096;38.760;2023-05-03T11:54:50;100623.66;;;16.32;42.43
77079;BME280;66004;55.096;38.760;2023-05-03T11:57:16;100621.75;;;16.52;42.21
77079;BME280;66004;55.096;38.760;2023-05-03T11:59:42;100615.75;;;16.73;42.53
77079;BME280;66004;55.096;38.760;2023-05-03T12:02:11;100618.69;;;16.93;41.35
77079;BME280;66004;55.096;38.760;2023-05-03T12:04:37;100606.97;;;16.95;41.51
77079;BME280;66004;55.096;38.760;2023-05-03T12:07:06;100618.00;;;17.16;41.43
77079;BME280;66004;55.096;38.760;2023-05-03T12:09:32;100619.03;;;17.07;41.28
77079;BME280;66004;55.096;38.760;2023-05-03T12:11:58;100620.53;;;17.01;41.42
77079;BME280;66004;55.096;38.760;2023-05-03T12:14:24;100620.91;;;16.84;41.66
77079;BME280;66004;55.096;38.760;2023-05-03T12:16:50;100610.09;;;16.73;41.86
77079;BME280;66004;55.096;38.760;2023-05-03T12:19:29;100616.34;;;16.63;42.15
77079;BME280;66004;55.096;38.760;2023-05-03T12:21:55;100626.13;;;16.50;42.09
77079;BME280;66004;55.096;38.760;2023-05-03T12:24:21;100613.03;;;16.29;42.24
77079;BME280;66004;55.096;38.760;2023-05-03T12:26:51;100631.44;;;16.35;42.34
77079;BME280;66004;55.096;38.760;2023-05-03T12:29:16;100633.88;;;16.21;42.35
77079;BME280;66004;55.096;38.760;2023-05-03T12:31:44;100622.16;;;16.07;42.20
77079;BME280;66004;55.096;38.760;2023-05-03T12:34:10;100635.50;;;15.90;42.72
77079;BME280;66004;55.096;38.760;2023-05-03T12:36:36;100623.47;;;15.69;43.21
77079;BME280;66004;55.096;38.760;2023-05-03T12:39:02;100620.00;;;15.60;43.58
77079;BME280;66004;55.096;38.760;2023-05-03T12:41:28;100628.88;;;15.58;43.46
77079;BME280;66004;55.096;38.760;2023-05-03T12:43:59;100633.69;;;15.57;43.75
77079;BME280;66004;55.096;38.760;2023-05-03T12:46:26;100637.63;;;15.53;44.13
77079;BME280;66004;55.096;38.760;2023-05-03T12:48:52;100630.91;;;15.45;43.94
77079;BME280;66004;55.096;38.760;2023-05-03T12:51:17;100624.56;;;15.36;44.05
77079;BME280;66004;55.096;38.760;2023-05-03T12:53:43;100626.00;;;15.30;44.39
77079;BME280;66004;55.096;38.760;2023-05-03T12:56:10;100609.94;;;15.22;44.58
77079;BME280;66004;55.096;38.760;2023-05-03T12:58:36;100628.50;;;15.19;44.89
77079;BME280;66004;55.096;38.760;2023-05-03T13:01:02;100618.25;;;15.02;45.02